createdAt,value
2018-05-15T00:07:26.475Z,4.00
2018-05-15T00:19:16.716Z,3.60
2018-05-15T00:42:39.847Z,3.37
2018-05-15T00:45:22.021Z,3.60
2018-05-15T00:47:35.983Z,3.80
2018-05-15T00:54:11.160Z,4.20
2018-05-15T00:56:20.323Z,3.33
2018-05-15T00:58:27.428Z,3.60
2018-05-15T01:10:54.585Z,3.57
2018-05-15T01:18:46.413Z,3.77
2018-05-15T01:21:26.439Z,4.20
2018-05-15T01:24:41.935Z,3.30
2018-05-15T01:29:17.779Z,3.53
2018-05-15T01:31:47.732Z,4.07
2018-05-15T01:34:20.579Z,3.77
2018-05-15T01:36:27.359Z,4.17
2018-05-15T01:38:43.156Z,3.70
2018-05-15T01:46:52.775Z,4.47
2018-05-15T01:48:59.321Z,4.10
2018-05-15T01:51:09.907Z,4.00
2018-05-15T01:53:25.733Z,3.87
2018-05-15T01:55:30.623Z,4.17
2018-05-15T01:57:35.743Z,4.33
2018-05-15T01:59:39.747Z,3.80
2018-05-15T02:15:39.245Z,4.13
2018-05-15T02:17:46.361Z,4.07
2018-05-15T02:19:52.299Z,4.00
2018-05-15T02:21:58.645Z,4.40
2018-05-15T02:24:09.062Z,4.27
2018-05-15T02:26:16.632Z,4.17
2018-05-15T02:28:21.362Z,4.27
2018-05-15T02:30:39.723Z,4.27
2018-05-15T02:32:47.179Z,4.50
2018-05-15T02:37:16.535Z,4.40
2018-05-15T02:39:22.213Z,4.30
2018-05-15T02:41:29.843Z,4.10
2018-05-15T02:43:42.626Z,4.37
2018-05-15T02:45:54.492Z,3.93
2018-05-15T02:47:59.878Z,4.60
2018-05-15T02:50:05.142Z,4.33
2018-05-15T02:52:10.887Z,3.80
2018-05-15T02:54:16.255Z,4.23
2018-05-15T02:56:24.088Z,3.77
2018-05-15T02:58:39.589Z,3.70
2018-05-15T03:01:02.573Z,4.20
2018-05-15T03:05:28.735Z,4.20
2018-05-15T03:07:37.352Z,4.13
2018-05-15T03:09:51.080Z,4.40
2018-05-15T03:12:06.213Z,4.50
2018-05-15T03:14:16.395Z,3.77
2018-05-15T03:16:30.041Z,3.77
2018-05-15T03:18:37.140Z,4.00
2018-05-15T03:20:45.202Z,4.40
2018-05-15T03:22:52.696Z,4.87
2018-05-15T03:24:58.259Z,4.13
2018-05-15T03:27:07.330Z,3.90
2018-05-15T03:29:18.706Z,4.27
2018-05-15T03:38:46.913Z,4.70
2018-05-15T03:40:53.148Z,4.03
2018-05-15T03:43:09.828Z,4.27
2018-05-15T03:45:19.594Z,4.17
2018-05-15T03:47:34.672Z,4.10
2018-05-15T03:49:42.565Z,3.73
2018-05-15T03:51:47.246Z,3.87
2018-05-15T03:53:55.632Z,4.80
2018-05-15T03:58:41.256Z,4.23
2018-05-15T04:03:01.757Z,4.13
2018-05-15T04:09:33.281Z,4.30
2018-05-15T04:11:46.141Z,4.20
2018-05-15T04:14:02.185Z,5.17
2018-05-15T04:16:14.151Z,4.10
2018-05-15T04:18:23.529Z,4.73
2018-05-15T04:20:30.854Z,4.27
2018-05-15T04:22:43.774Z,4.80
2018-05-15T04:24:52.833Z,4.10
2018-05-15T04:27:00.350Z,4.47
2018-05-15T04:29:15.872Z,4.50
2018-05-15T04:46:27.950Z,3.93
2018-05-15T04:48:38.014Z,4.47
2018-05-15T04:51:03.253Z,4.43
2018-05-15T04:53:15.525Z,4.23
2018-05-15T04:55:31.479Z,4.37
2018-05-15T05:15:52.330Z,4.93
2018-05-15T05:33:31.643Z,4.43
2018-05-15T05:35:44.297Z,4.93
2018-05-15T06:04:20.900Z,4.33
2018-05-15T06:06:34.838Z,4.67
2018-05-15T06:13:10.378Z,3.90
2018-05-15T06:15:21.005Z,4.50
2018-05-15T06:17:43.018Z,4.30
2018-05-15T06:20:31.960Z,4.50
2018-05-15T06:22:55.256Z,4.17
2018-05-15T06:25:35.804Z,4.40
2018-05-15T06:27:54.019Z,4.57
2018-05-15T06:39:28.995Z,4.37
2018-05-15T06:46:35.884Z,4.60
2018-05-15T06:48:48.292Z,4.60
2018-05-15T06:51:01.791Z,4.67
2018-05-15T06:53:08.806Z,4.73
2018-05-15T06:55:29.990Z,4.70
2018-05-15T06:58:38.367Z,4.17
2018-05-15T07:12:16.900Z,4.27
2018-05-15T07:19:14.791Z,4.40
2018-05-15T07:21:31.504Z,4.90
2018-05-15T07:41:53.334Z,4.67
2018-05-15T07:44:07.097Z,4.30
2018-05-15T07:46:23.405Z,4.33
2018-05-15T08:00:58.147Z,4.63
2018-05-15T08:06:12.831Z,4.67
2018-05-15T08:08:30.538Z,4.47
2018-05-15T08:13:16.945Z,5.23
2018-05-15T08:30:53.310Z,4.73
2018-05-15T08:47:58.427Z,4.53
2018-05-15T09:01:48.620Z,4.73
2018-05-15T09:04:01.502Z,4.60
2018-05-15T09:06:15.254Z,4.63
2018-05-15T09:08:36.456Z,5.10
2018-05-15T09:11:43.628Z,4.70
2018-05-15T09:18:19.992Z,5.07
2018-05-15T09:25:26.982Z,4.77
2018-05-15T09:27:37.402Z,4.47
2018-05-15T09:42:31.307Z,4.40
2018-05-15T09:44:35.329Z,4.47
2018-05-15T09:46:40.749Z,5.00
2018-05-15T09:48:44.644Z,4.23
2018-05-15T09:50:48.553Z,4.73
2018-05-15T09:52:56.719Z,4.80
2018-05-15T09:55:04.495Z,4.57
2018-05-15T09:57:11.741Z,4.43
2018-05-15T09:59:18.496Z,4.70
2018-05-15T10:01:26.816Z,4.17
2018-05-15T10:03:33.932Z,4.50
2018-05-15T10:05:43.019Z,4.03
2018-05-15T10:07:47.333Z,3.70
2018-05-15T10:09:51.773Z,3.93
2018-05-15T10:11:55.765Z,3.83
2018-05-15T10:14:01.309Z,4.07
2018-05-15T10:16:05.186Z,3.53
2018-05-15T10:18:11.061Z,3.37
2018-05-15T10:20:18.111Z,3.67
2018-05-15T10:22:22.305Z,3.43
2018-05-15T10:24:26.538Z,3.43
2018-05-15T10:26:30.477Z,3.63
2018-05-15T10:28:35.253Z,3.30
2018-05-15T10:30:39.619Z,3.43
2018-05-15T10:32:43.981Z,3.03
2018-05-15T10:34:48.080Z,3.60
2018-05-15T10:39:00.966Z,3.90
2018-05-15T10:41:06.035Z,3.40
2018-05-15T10:43:12.401Z,3.63
2018-05-15T10:45:16.445Z,3.90
2018-05-15T10:47:22.567Z,3.60
2018-05-15T10:49:29.482Z,3.67
2018-05-15T10:51:33.520Z,3.60
2018-05-15T10:53:37.473Z,3.70
2018-05-15T10:55:47.607Z,4.20
2018-05-15T10:57:54.823Z,3.73
2018-05-15T10:59:59.680Z,3.50
2018-05-15T11:02:05.917Z,3.70
2018-05-15T11:04:14.218Z,3.67
2018-05-15T11:06:18.225Z,3.50
2018-05-15T11:08:29.850Z,4.43
2018-05-15T11:10:34.237Z,4.50
2018-05-15T11:14:52.795Z,4.07
2018-05-15T11:16:56.735Z,3.73
2018-05-15T11:19:10.857Z,4.27
2018-05-15T11:23:27.909Z,4.03
2018-05-15T11:25:32.165Z,4.37
2018-05-15T11:27:36.209Z,4.30
2018-05-15T11:29:40.898Z,4.07
2018-05-15T11:31:46.524Z,4.00
2018-05-15T11:33:52.017Z,3.90
2018-05-15T11:35:56.595Z,4.30
2018-05-15T11:38:00.889Z,4.23
2018-05-15T11:40:08.355Z,4.57
2018-05-15T11:42:13.806Z,4.60
2018-05-15T11:44:18.914Z,4.97
2018-05-15T11:46:23.300Z,4.50
2018-05-15T11:48:27.869Z,4.40
2018-05-15T11:50:31.997Z,4.53
2018-05-15T11:52:36.323Z,4.40
2018-05-15T11:54:39.719Z,4.20
2018-05-15T11:56:44.757Z,4.53
2018-05-15T11:58:49.245Z,4.83
2018-05-15T12:00:55.509Z,4.67
2018-05-15T12:03:01.658Z,4.30
2018-05-15T12:05:08.246Z,4.40
2018-05-15T12:07:12.352Z,4.47
2018-05-15T12:09:16.345Z,4.33
2018-05-15T12:11:21.178Z,4.10
2018-05-15T12:13:25.069Z,3.70
2018-05-15T12:15:28.929Z,4.20
2018-05-15T12:17:32.881Z,4.00
2018-05-15T12:19:36.916Z,4.20
2018-05-15T12:21:41.602Z,4.03
2018-05-15T12:23:49.737Z,4.33
2018-05-15T12:25:53.605Z,3.83
2018-05-15T12:27:57.863Z,4.40
2018-05-15T12:30:07.399Z,4.03
2018-05-15T12:32:12.116Z,4.53
2018-05-15T12:34:17.293Z,4.50
2018-05-15T12:36:25.600Z,4.30
2018-05-15T12:38:32.642Z,4.53
2018-05-15T12:40:41.056Z,3.90
2018-05-15T12:42:46.580Z,3.93
2018-05-15T12:44:52.843Z,4.53
2018-05-15T12:46:57.771Z,4.60
2018-05-15T12:49:04.182Z,4.00
2018-05-15T12:51:08.310Z,4.57
2018-05-15T12:53:12.442Z,4.07
2018-05-15T12:55:22.654Z,4.70
2018-05-15T12:57:26.787Z,3.93
2018-05-15T12:59:30.963Z,4.20
2018-05-15T13:01:35.719Z,4.33
2018-05-15T13:03:39.751Z,4.30
2018-05-15T13:05:43.777Z,4.00
2018-05-15T13:07:50.234Z,4.90
2018-05-15T13:09:54.957Z,4.20
2018-05-15T13:11:59.316Z,3.60
2018-05-15T13:14:04.240Z,4.07
2018-05-15T13:16:09.876Z,4.00
2018-05-15T13:18:13.975Z,4.00
2018-05-15T13:20:22.167Z,4.10
2018-05-15T13:22:27.249Z,4.00
2018-05-15T13:24:31.286Z,4.03
2018-05-15T13:26:40.594Z,3.80
2018-05-15T13:28:46.768Z,4.27
2018-05-15T13:30:50.917Z,4.50
2018-05-15T13:32:56.429Z,4.10
2018-05-15T13:35:00.460Z,4.30
2018-05-15T13:37:04.357Z,4.30
2018-05-15T13:39:10.092Z,4.20
2018-05-15T13:41:14.975Z,3.87
2018-05-15T13:43:18.941Z,4.13
2018-05-15T13:45:24.182Z,3.90
2018-05-15T13:47:28.187Z,3.67
2018-05-15T13:49:33.417Z,3.90
2018-05-15T13:51:42.760Z,3.57
2018-05-15T13:53:46.715Z,3.40
2018-05-15T13:55:50.869Z,3.40
2018-05-15T13:57:55.273Z,3.33
2018-05-15T14:00:01.766Z,3.23
2018-05-15T14:02:05.987Z,3.57
2018-05-15T14:04:11.169Z,3.50
2018-05-15T14:06:15.442Z,4.07
2018-05-15T14:08:19.432Z,4.00
2018-05-15T14:10:23.778Z,4.23
2018-05-15T14:12:28.577Z,4.30
2018-05-15T14:14:32.464Z,4.07
2018-05-15T14:16:38.546Z,3.83
2018-05-15T14:18:42.833Z,4.20
2018-05-15T14:20:46.836Z,3.90
2018-05-15T14:22:50.855Z,3.73
2018-05-15T14:24:54.778Z,4.30
2018-05-15T14:26:58.797Z,4.30
2018-05-15T14:29:03.946Z,4.00
2018-05-15T14:31:08.684Z,3.77
2018-05-15T14:33:15.341Z,4.20
2018-05-15T14:35:20.716Z,4.00
2018-05-15T14:37:24.601Z,4.43
2018-05-15T14:39:28.497Z,4.47
2018-05-15T14:41:46.542Z,4.67
2018-05-15T14:43:50.459Z,5.33
2018-05-15T14:45:56.545Z,4.67
2018-05-15T14:48:01.943Z,4.10
2018-05-15T14:50:05.981Z,4.60
2018-05-15T14:52:09.962Z,4.50
2018-05-15T14:54:16.198Z,4.17
2018-05-15T14:56:21.356Z,4.33
2018-05-15T14:58:25.461Z,3.77
2018-05-15T15:00:30.676Z,4.30
2018-05-15T15:02:34.705Z,3.83
2018-05-15T15:04:41.697Z,3.87
2018-05-15T15:06:46.181Z,3.63
2018-05-15T15:08:50.927Z,4.03
2018-05-15T15:10:54.883Z,3.67
2018-05-15T15:12:58.793Z,3.43
2018-05-15T15:15:04.101Z,3.50
2018-05-15T15:17:08.229Z,3.23
2018-05-15T15:19:12.563Z,3.20
2018-05-15T15:21:17.389Z,3.60
2018-05-15T15:23:21.236Z,3.30
2018-05-15T15:25:25.474Z,3.33
2018-05-15T15:27:29.345Z,3.20
2018-05-15T15:29:34.179Z,3.50
2018-05-15T15:31:44.655Z,3.73
2018-05-15T15:33:48.871Z,3.93
2018-05-15T15:35:52.812Z,4.13
2018-05-15T15:37:56.792Z,4.07
2018-05-15T15:40:00.713Z,3.60
2018-05-15T15:42:04.940Z,3.93
2018-05-15T15:44:09.228Z,3.90
2018-05-15T15:46:13.338Z,4.47
2018-05-15T15:48:17.950Z,3.90
2018-05-15T15:50:22.181Z,4.70
2018-05-15T15:52:26.775Z,4.07
2018-05-15T15:54:30.681Z,4.37
2018-05-15T15:56:34.879Z,4.30
2018-05-15T15:58:40.132Z,4.57
2018-05-15T16:00:45.326Z,4.60
2018-05-15T16:02:50.041Z,4.50
2018-05-15T16:04:54.323Z,4.63
2018-05-15T16:06:58.307Z,3.70
2018-05-15T16:09:04.233Z,4.03
2018-05-15T16:11:08.449Z,4.60
2018-05-15T16:13:13.092Z,4.17
2018-05-15T16:15:17.341Z,4.80
2018-05-15T16:17:22.674Z,4.77
2018-05-15T16:19:26.572Z,4.50
2018-05-15T16:21:30.817Z,5.03
2018-05-15T16:23:34.679Z,4.77
2018-05-15T16:25:38.581Z,4.60
2018-05-15T16:27:43.231Z,5.10
2018-05-15T16:29:47.144Z,4.77
2018-05-15T16:31:51.039Z,4.83
2018-05-15T16:33:55.317Z,4.83
2018-05-15T16:35:59.261Z,4.60
2018-05-15T16:38:03.244Z,5.20
2018-05-15T16:40:08.612Z,4.63
2018-05-15T16:42:12.492Z,4.83
2018-05-15T16:44:16.261Z,4.17
2018-05-15T16:46:21.526Z,4.57
2018-05-15T16:48:26.226Z,4.90
2018-05-15T16:50:30.144Z,4.60
2018-05-15T16:52:36.651Z,4.70
2018-05-15T16:54:40.633Z,4.70
2018-05-15T16:56:44.553Z,4.70
2018-05-15T16:58:49.537Z,4.27
2018-05-15T17:00:54.117Z,4.23
2018-05-15T17:02:58.789Z,5.20
2018-05-15T17:05:02.910Z,4.17
2018-05-15T17:07:07.587Z,4.97
2018-05-15T17:09:11.457Z,4.23
2018-05-15T17:11:15.681Z,4.53
2018-05-15T17:13:20.201Z,4.83
2018-05-15T17:15:25.244Z,4.10
2018-05-15T17:17:30.332Z,4.27
2018-05-15T17:19:34.928Z,5.70
2018-05-15T17:21:38.882Z,4.17
2018-05-15T17:23:42.851Z,4.80
2018-05-15T17:25:46.966Z,4.33
2018-05-15T17:27:50.867Z,4.40
2018-05-15T17:29:55.185Z,4.17
2018-05-15T17:31:59.025Z,4.93
2018-05-15T17:34:02.891Z,4.60
2018-05-15T17:36:07.047Z,4.63
2018-05-15T17:38:11.096Z,4.43
2018-05-15T17:40:14.868Z,4.97
2018-05-15T17:42:19.068Z,4.80
2018-05-15T17:44:23.355Z,4.27
2018-05-15T17:46:28.005Z,4.77
2018-05-15T17:48:31.837Z,4.60
2018-05-15T17:50:35.756Z,5.17
2018-05-15T17:52:39.759Z,5.00
2018-05-15T17:54:44.681Z,4.43
2018-05-15T17:56:49.442Z,4.77
2018-05-15T17:58:54.197Z,4.83
2018-05-15T18:00:58.364Z,4.40
2018-05-15T18:03:02.236Z,2.50
2018-05-15T18:05:06.260Z,2.20
2018-05-15T18:07:10.493Z,2.60
2018-05-15T18:09:14.345Z,2.80
2018-05-15T18:11:18.387Z,2.50
2018-05-15T18:13:22.316Z,2.83
2018-05-15T18:15:26.313Z,3.23
2018-05-15T18:17:30.325Z,3.07
2018-05-15T18:19:34.230Z,2.87
2018-05-15T18:21:38.094Z,2.70
2018-05-15T18:23:42.813Z,3.40
2018-05-15T18:25:47.049Z,3.10
2018-05-15T18:27:50.895Z,2.63
2018-05-15T18:29:54.745Z,2.67
2018-05-15T18:31:58.962Z,3.60
2018-05-15T18:34:03.535Z,3.10
2018-05-15T18:36:08.193Z,3.03
2018-05-15T18:38:12.450Z,3.20
2018-05-15T18:40:16.406Z,3.03
2018-05-15T18:42:20.297Z,2.97
2018-05-15T18:44:25.936Z,3.50
2018-05-15T18:46:30.597Z,2.97
2018-05-15T18:48:35.211Z,2.90
2018-05-15T18:50:39.839Z,3.37
2018-05-15T18:52:43.742Z,3.20
2018-05-15T18:54:48.221Z,3.63
2018-05-15T18:56:53.096Z,3.60
2018-05-15T18:58:57.168Z,3.40
2018-05-15T19:01:01.982Z,3.57
2018-05-15T19:03:06.342Z,3.87
2018-05-15T19:05:10.287Z,3.63
2018-05-15T19:07:14.958Z,4.17
2018-05-15T19:09:18.877Z,3.40
2018-05-15T19:11:22.839Z,4.10
2018-05-15T19:13:27.701Z,4.10
2018-05-15T19:15:34.946Z,3.53
2018-05-15T19:17:39.724Z,3.53
2018-05-15T19:19:43.565Z,3.60
2018-05-15T19:21:47.955Z,4.00
2018-05-15T19:23:51.897Z,3.77
2018-05-15T19:25:55.764Z,3.63
2018-05-15T19:28:00.717Z,3.10
2018-05-15T19:30:06.606Z,3.47
2018-05-15T19:32:14.721Z,3.47
2018-05-15T19:34:24.465Z,4.07
2018-05-15T19:36:31.530Z,4.13
2018-05-15T19:38:36.193Z,4.43
2018-05-15T19:40:41.966Z,4.20
2018-05-15T19:42:45.804Z,4.13
2018-05-15T19:44:50.323Z,4.07
2018-05-15T19:46:55.306Z,4.00
2018-05-15T19:48:59.169Z,4.10
2018-05-15T19:51:03.820Z,4.23
2018-05-15T19:53:08.088Z,4.27
2018-05-15T19:55:12.105Z,4.07
2018-05-15T19:57:15.962Z,4.23
2018-05-15T19:59:19.809Z,4.00
2018-05-15T20:01:23.627Z,4.17
2018-05-15T20:03:28.289Z,3.73
2018-05-15T20:05:32.555Z,3.60
2018-05-15T20:07:36.449Z,3.03
2018-05-15T20:09:40.396Z,3.23
2018-05-15T20:11:44.590Z,3.20
2018-05-15T20:13:49.297Z,3.63
2018-05-15T20:15:53.669Z,3.50
2018-05-15T20:17:57.871Z,3.97
2018-05-15T20:20:01.800Z,3.80
2018-05-15T20:22:05.696Z,4.00
2018-05-15T20:24:09.604Z,3.83
2018-05-15T20:26:13.549Z,3.60
2018-05-15T20:28:17.449Z,3.53
2018-05-15T20:30:21.581Z,3.17
2018-05-15T20:32:25.469Z,3.50
2018-05-15T20:34:30.013Z,3.43
2018-05-15T20:36:34.900Z,3.77
2018-05-15T20:38:38.749Z,3.47
2018-05-15T20:40:42.585Z,3.63
2018-05-15T20:42:46.758Z,3.60
2018-05-15T20:44:52.232Z,3.43
2018-05-15T20:46:56.138Z,3.03
2018-05-15T20:49:00.061Z,3.87
2018-05-15T20:51:03.998Z,4.13
2018-05-15T20:53:10.898Z,3.83
2018-05-15T20:55:17.270Z,4.53
2018-05-15T20:57:21.181Z,4.63
2018-05-15T20:59:25.157Z,4.93
2018-05-15T21:01:31.417Z,4.83
2018-05-15T21:03:36.653Z,5.37
2018-05-15T21:05:40.584Z,4.90
2018-05-15T21:07:44.746Z,5.53
2018-05-15T21:09:48.629Z,5.70
2018-05-15T21:11:53.308Z,5.77
2018-05-15T21:13:57.497Z,5.37
2018-05-15T21:16:02.292Z,5.67
2018-05-15T21:18:06.178Z,6.00
2018-05-15T21:20:10.458Z,5.90
2018-05-15T21:22:15.191Z,6.13
2018-05-15T21:24:19.861Z,5.90
2018-05-15T21:26:24.084Z,5.87
2018-05-15T21:28:28.797Z,5.63
2018-05-15T21:30:33.429Z,5.70
2018-05-15T21:32:38.349Z,5.87
2018-05-15T21:34:42.197Z,5.87
2018-05-15T21:36:46.187Z,6.13
2018-05-15T21:38:50.410Z,5.93
2018-05-15T21:40:55.213Z,5.20
2018-05-15T21:42:59.068Z,5.90
2018-05-15T21:45:05.014Z,5.27
2018-05-15T21:47:08.913Z,5.70
2018-05-15T21:49:13.901Z,5.33
2018-05-15T21:51:18.267Z,5.20
2018-05-15T21:53:22.913Z,5.33
2018-05-15T21:55:26.781Z,5.17
2018-05-15T21:57:33.565Z,5.83
2018-05-15T21:59:38.225Z,5.83
2018-05-15T22:01:42.054Z,4.83
2018-05-15T22:03:46.342Z,5.23
2018-05-15T22:05:50.198Z,5.20
2018-05-15T22:07:55.636Z,5.10
2018-05-15T22:10:00.502Z,4.50
2018-05-15T22:12:15.320Z,4.57
2018-05-15T22:14:30.145Z,4.80
2018-05-15T22:16:45.205Z,4.47
2018-05-15T22:19:00.985Z,4.33
2018-05-15T22:21:15.854Z,4.30
2018-05-15T22:23:18.811Z,4.23
2018-05-15T22:25:22.806Z,4.10
2018-05-15T22:27:27.382Z,3.97
2018-05-15T22:29:31.473Z,4.57
2018-05-15T22:31:36.029Z,4.40
2018-05-15T22:33:41.222Z,4.20
2018-05-15T22:35:48.169Z,4.47
2018-05-15T22:37:52.458Z,4.17
2018-05-15T22:39:56.288Z,4.23
2018-05-15T22:42:01.009Z,4.20
2018-05-15T22:44:09.181Z,4.30
2018-05-15T22:46:13.905Z,3.87
2018-05-15T22:48:17.812Z,4.40
2018-05-15T22:50:21.669Z,4.00
2018-05-15T22:52:26.330Z,4.20
2018-05-15T22:54:30.237Z,4.00
2018-05-15T22:56:35.013Z,3.97
2018-05-15T22:58:39.757Z,4.07
2018-05-15T23:00:43.649Z,3.70
2018-05-15T23:02:49.180Z,4.00
2018-05-15T23:04:54.022Z,4.50
2018-05-15T23:07:01.552Z,3.70
2018-05-15T23:09:10.172Z,4.03
2018-05-15T23:11:24.215Z,4.10
2018-05-15T23:13:28.242Z,4.10
2018-05-15T23:15:47.153Z,3.87
2018-05-15T23:17:58.697Z,5.03
2018-05-15T23:20:03.077Z,4.20
2018-05-15T23:22:08.442Z,3.90
2018-05-15T23:24:12.529Z,3.77
2018-05-15T23:26:17.870Z,3.87
2018-05-15T23:28:24.121Z,4.23
2018-05-15T23:30:28.132Z,4.00
2018-05-15T23:32:32.404Z,3.80
2018-05-15T23:34:42.797Z,3.90
2018-05-15T23:36:46.946Z,3.63
2018-05-15T23:38:51.207Z,4.20
2018-05-15T23:40:56.531Z,3.60
2018-05-15T23:43:01.129Z,3.70
2018-05-15T23:45:08.068Z,3.67
2018-05-15T23:47:19.217Z,4.20
2018-05-15T23:49:23.127Z,3.60
2018-05-15T23:51:27.853Z,3.60
2018-05-15T23:53:32.065Z,3.50
2018-05-15T23:55:35.917Z,3.87
2018-05-15T23:57:39.819Z,3.87
2018-05-15T23:59:44.029Z,3.80
